sensor_id;sensor_type;location;lat;lon;timestamp;P1;durP1;ratioP1;P2;durP2;ratioP2
19404;SDS011;9838;49.384;8.292;2022-07-23T00:00:51;2.55;;;1.42;;
19404;SDS011;9838;49.384;8.292;2022-07-23T00:10:53;3.70;;;1.50;;
19404;SDS011;9838;49.384;8.292;2022-07-23T00:20:54;1.77;;;1.30;;
19404;SDS011;9838;49.384;8.292;2022-07-23T00:30:56;2.08;;;1.38;;
19404;SDS011;9838;49.384;8.292;2022-07-23T00:40:58;3.80;;;1.52;;
19404;SDS011;9838;49.384;8.292;2022-07-23T00:51:00;4.20;;;1.77;;
19404;SDS011;9838;49.384;8.292;2022-07-23T01:01:02;2.70;;;1.73;;
19404;SDS011;9838;49.384;8.292;2022-07-23T01:11:04;3.28;;;1.65;;
19404;SDS011;9838;49.384;8.292;2022-07-23T01:21:06;2.45;;;1.58;;
19404;SDS011;9838;49.384;8.292;2022-07-23T01:31:09;2.10;;;1.42;;
19404;SDS011;9838;49.384;8.292;2022-07-23T01:41:17;1.83;;;1.20;;
19404;SDS011;9838;49.384;8.292;2022-07-23T01:51:20;2.15;;;1.65;;
19404;SDS011;9838;49.384;8.292;2022-07-23T02:01:31;2.45;;;1.45;;
19404;SDS011;9838;49.384;8.292;2022-07-23T02:11:34;3.17;;;1.70;;
19404;SDS011;9838;49.384;8.292;2022-07-23T02:21:35;2.20;;;1.48;;
19404;SDS011;9838;49.384;8.292;2022-07-23T02:31:37;2.10;;;1.40;;
19404;SDS011;9838;49.384;8.292;2022-07-23T02:41:40;3.13;;;2.00;;
19404;SDS011;9838;49.384;8.292;2022-07-23T02:51:43;2.10;;;1.60;;
19404;SDS011;9838;49.384;8.292;2022-07-23T03:01:45;2.35;;;1.52;;
19404;SDS011;9838;49.384;8.292;2022-07-23T03:11:47;3.55;;;1.70;;
19404;SDS011;9838;49.384;8.292;2022-07-23T03:21:49;2.42;;;1.63;;
19404;SDS011;9838;49.384;8.292;2022-07-23T03:31:50;2.03;;;1.52;;
19404;SDS011;9838;49.384;8.292;2022-07-23T03:41:53;3.25;;;1.70;;
19404;SDS011;9838;49.384;8.292;2022-07-23T03:51:55;3.80;;;1.98;;
19404;SDS011;9838;49.384;8.292;2022-07-23T04:01:56;4.05;;;1.80;;
19404;SDS011;9838;49.384;8.292;2022-07-23T04:12:00;3.22;;;1.92;;
19404;SDS011;9838;49.384;8.292;2022-07-23T04:22:02;2.65;;;1.92;;
19404;SDS011;9838;49.384;8.292;2022-07-23T04:32:05;3.88;;;2.00;;
19404;SDS011;9838;49.384;8.292;2022-07-23T04:42:07;2.65;;;1.92;;
19404;SDS011;9838;49.384;8.292;2022-07-23T04:52:09;4.10;;;2.42;;
19404;SDS011;9838;49.384;8.292;2022-07-23T05:02:12;3.00;;;2.15;;
19404;SDS011;9838;49.384;8.292;2022-07-23T05:12:14;2.65;;;2.10;;
19404;SDS011;9838;49.384;8.292;2022-07-23T05:22:18;2.50;;;2.03;;
19404;SDS011;9838;49.384;8.292;2022-07-23T05:32:19;6.32;;;4.18;;
19404;SDS011;9838;49.384;8.292;2022-07-23T05:42:29;4.38;;;2.50;;
19404;SDS011;9838;49.384;8.292;2022-07-23T05:52:31;2.65;;;2.10;;
19404;SDS011;9838;49.384;8.292;2022-07-23T06:02:53;2.92;;;2.28;;
19404;SDS011;9838;49.384;8.292;2022-07-23T06:12:55;3.03;;;2.10;;
19404;SDS011;9838;49.384;8.292;2022-07-23T06:22:58;3.33;;;2.20;;
19404;SDS011;9838;49.384;8.292;2022-07-23T06:33:00;2.67;;;2.10;;
19404;SDS011;9838;49.384;8.292;2022-07-23T06:43:03;3.05;;;2.33;;
19404;SDS011;9838;49.384;8.292;2022-07-23T06:53:06;3.70;;;2.55;;
19404;SDS011;9838;49.384;8.292;2022-07-23T07:03:08;3.20;;;2.20;;
19404;SDS011;9838;49.384;8.292;2022-07-23T07:13:09;2.63;;;2.20;;
19404;SDS011;9838;49.384;8.292;2022-07-23T07:23:12;2.88;;;2.05;;
19404;SDS011;9838;49.384;8.292;2022-07-23T07:33:14;2.50;;;2.10;;
19404;SDS011;9838;49.384;8.292;2022-07-23T07:43:16;3.70;;;2.08;;
19404;SDS011;9838;49.384;8.292;2022-07-23T07:53:17;2.95;;;2.35;;
19404;SDS011;9838;49.384;8.292;2022-07-23T08:03:19;3.20;;;2.60;;
19404;SDS011;9838;49.384;8.292;2022-07-23T08:13:21;4.72;;;2.00;;
19404;SDS011;9838;49.384;8.292;2022-07-23T08:23:22;3.15;;;2.10;;
19404;SDS011;9838;49.384;8.292;2022-07-23T08:33:24;2.85;;;2.20;;
19404;SDS011;9838;49.384;8.292;2022-07-23T08:43:27;3.15;;;2.53;;
19404;SDS011;9838;49.384;8.292;2022-07-23T08:53:30;3.80;;;2.60;;
19404;SDS011;9838;49.384;8.292;2022-07-23T09:03:33;2.92;;;2.28;;
19404;SDS011;9838;49.384;8.292;2022-07-23T09:13:50;4.45;;;3.28;;
19404;SDS011;9838;49.384;8.292;2022-07-23T09:34:06;4.65;;;2.42;;
19404;SDS011;9838;49.384;8.292;2022-07-23T09:44:13;3.83;;;2.47;;
19404;SDS011;9838;49.384;8.292;2022-07-23T09:54:27;3.63;;;2.42;;
19404;SDS011;9838;49.384;8.292;2022-07-23T10:04:31;3.47;;;2.55;;
19404;SDS011;9838;49.384;8.292;2022-07-23T10:14:59;4.95;;;3.40;;
19404;SDS011;9838;49.384;8.292;2022-07-23T10:35:11;3.13;;;2.53;;
19404;SDS011;9838;49.384;8.292;2022-07-23T10:45:33;3.17;;;2.30;;
19404;SDS011;9838;49.384;8.292;2022-07-23T11:05:41;3.10;;;2.38;;
19404;SDS011;9838;49.384;8.292;2022-07-23T11:26:06;2.58;;;2.05;;
19404;SDS011;9838;49.384;8.292;2022-07-23T11:36:09;3.50;;;2.45;;
19404;SDS011;9838;49.384;8.292;2022-07-23T11:46:10;2.63;;;2.25;;
19404;SDS011;9838;49.384;8.292;2022-07-23T11:56:13;3.47;;;2.35;;
19404;SDS011;9838;49.384;8.292;2022-07-23T12:06:15;3.15;;;2.25;;
19404;SDS011;9838;49.384;8.292;2022-07-23T12:16:17;4.40;;;2.28;;
19404;SDS011;9838;49.384;8.292;2022-07-23T12:26:19;2.88;;;2.30;;
19404;SDS011;9838;49.384;8.292;2022-07-23T12:36:21;2.33;;;1.98;;
19404;SDS011;9838;49.384;8.292;2022-07-23T12:46:40;2.17;;;1.52;;
19404;SDS011;9838;49.384;8.292;2022-07-23T12:56:44;2.30;;;1.75;;
19404;SDS011;9838;49.384;8.292;2022-07-23T13:16:48;5.72;;;2.30;;
19404;SDS011;9838;49.384;8.292;2022-07-23T13:26:51;3.15;;;2.13;;
19404;SDS011;9838;49.384;8.292;2022-07-23T13:36:53;2.65;;;1.80;;
19404;SDS011;9838;49.384;8.292;2022-07-23T13:46:58;2.70;;;1.95;;
19404;SDS011;9838;49.384;8.292;2022-07-23T13:57:02;3.20;;;2.10;;
19404;SDS011;9838;49.384;8.292;2022-07-23T14:07:04;2.40;;;1.70;;
19404;SDS011;9838;49.384;8.292;2022-07-23T14:17:06;2.83;;;2.10;;
19404;SDS011;9838;49.384;8.292;2022-07-23T14:27:08;2.72;;;1.98;;
19404;SDS011;9838;49.384;8.292;2022-07-23T14:37:18;3.58;;;1.77;;
19404;SDS011;9838;49.384;8.292;2022-07-23T14:47:33;2.88;;;1.85;;
19404;SDS011;9838;49.384;8.292;2022-07-23T14:57:35;3.33;;;1.85;;
19404;SDS011;9838;49.384;8.292;2022-07-23T15:07:37;2.50;;;1.80;;
19404;SDS011;9838;49.384;8.292;2022-07-23T15:17:39;2.75;;;2.10;;
19404;SDS011;9838;49.384;8.292;2022-07-23T15:27:40;3.20;;;1.75;;
19404;SDS011;9838;49.384;8.292;2022-07-23T15:37:43;3.05;;;1.90;;
19404;SDS011;9838;49.384;8.292;2022-07-23T15:47:46;2.20;;;1.63;;
19404;SDS011;9838;49.384;8.292;2022-07-23T15:57:50;2.10;;;1.75;;
19404;SDS011;9838;49.384;8.292;2022-07-23T16:07:52;2.17;;;1.88;;
19404;SDS011;9838;49.384;8.292;2022-07-23T16:17:54;4.53;;;1.90;;
19404;SDS011;9838;49.384;8.292;2022-07-23T16:27:57;2.55;;;1.73;;
19404;SDS011;9838;49.384;8.292;2022-07-23T16:37:59;2.65;;;1.60;;
19404;SDS011;9838;49.384;8.292;2022-07-23T16:48:02;2.38;;;1.80;;
19404;SDS011;9838;49.384;8.292;2022-07-23T16:58:04;2.28;;;1.50;;
19404;SDS011;9838;49.384;8.292;2022-07-23T17:08:07;2.22;;;1.50;;
19404;SDS011;9838;49.384;8.292;2022-07-23T17:18:08;2.22;;;1.52;;
19404;SDS011;9838;49.384;8.292;2022-07-23T17:28:13;2.10;;;1.60;;
19404;SDS011;9838;49.384;8.292;2022-07-23T17:38:16;2.40;;;1.52;;
19404;SDS011;9838;49.384;8.292;2022-07-23T17:48:18;2.50;;;1.50;;
19404;SDS011;9838;49.384;8.292;2022-07-23T17:58:20;4.28;;;1.73;;
19404;SDS011;9838;49.384;8.292;2022-07-23T18:08:22;2.70;;;1.55;;
19404;SDS011;9838;49.384;8.292;2022-07-23T18:18:23;4.15;;;1.63;;
19404;SDS011;9838;49.384;8.292;2022-07-23T18:28:25;3.05;;;1.60;;
19404;SDS011;9838;49.384;8.292;2022-07-23T18:38:27;3.28;;;1.70;;
19404;SDS011;9838;49.384;8.292;2022-07-23T18:48:29;2.60;;;1.80;;
19404;SDS011;9838;49.384;8.292;2022-07-23T18:58:31;2.78;;;1.80;;
19404;SDS011;9838;49.384;8.292;2022-07-23T19:08:33;2.80;;;1.63;;
19404;SDS011;9838;49.384;8.292;2022-07-23T19:18:34;2.22;;;1.60;;
19404;SDS011;9838;49.384;8.292;2022-07-23T19:28:36;4.28;;;1.98;;
19404;SDS011;9838;49.384;8.292;2022-07-23T19:38:38;2.83;;;1.60;;
19404;SDS011;9838;49.384;8.292;2022-07-23T19:48:40;3.10;;;1.77;;
19404;SDS011;9838;49.384;8.292;2022-07-23T19:58:43;3.00;;;1.65;;
19404;SDS011;9838;49.384;8.292;2022-07-23T20:08:45;4.13;;;2.00;;
19404;SDS011;9838;49.384;8.292;2022-07-23T20:18:47;3.63;;;2.10;;
19404;SDS011;9838;49.384;8.292;2022-07-23T20:28:49;2.95;;;1.73;;
19404;SDS011;9838;49.384;8.292;2022-07-23T20:38:50;3.45;;;1.35;;
19404;SDS011;9838;49.384;8.292;2022-07-23T20:48:52;2.83;;;1.63;;
19404;SDS011;9838;49.384;8.292;2022-07-23T20:58:54;3.53;;;1.10;;
19404;SDS011;9838;49.384;8.292;2022-07-23T21:08:56;1.98;;;1.35;;
19404;SDS011;9838;49.384;8.292;2022-07-23T21:18:58;2.53;;;1.35;;
19404;SDS011;9838;49.384;8.292;2022-07-23T21:29:00;2.38;;;1.40;;
19404;SDS011;9838;49.384;8.292;2022-07-23T21:39:05;2.45;;;1.23;;
19404;SDS011;9838;49.384;8.292;2022-07-23T21:49:06;4.07;;;1.13;;
19404;SDS011;9838;49.384;8.292;2022-07-23T21:59:08;2.75;;;1.20;;
19404;SDS011;9838;49.384;8.292;2022-07-23T22:09:10;1.98;;;1.15;;
19404;SDS011;9838;49.384;8.292;2022-07-23T22:19:12;2.15;;;1.27;;
19404;SDS011;9838;49.384;8.292;2022-07-23T22:29:14;1.73;;;1.13;;
19404;SDS011;9838;49.384;8.292;2022-07-23T22:39:16;1.75;;;1.10;;
19404;SDS011;9838;49.384;8.292;2022-07-23T22:49:17;1.50;;;0.95;;
19404;SDS011;9838;49.384;8.292;2022-07-23T22:59:19;2.35;;;1.08;;
19404;SDS011;9838;49.384;8.292;2022-07-23T23:09:21;1.45;;;1.00;;
19404;SDS011;9838;49.384;8.292;2022-07-23T23:19:22;1.38;;;1.00;;
19404;SDS011;9838;49.384;8.292;2022-07-23T23:29:24;2.10;;;0.90;;
19404;SDS011;9838;49.384;8.292;2022-07-23T23:39:26;1.50;;;1.02;;
19404;SDS011;9838;49.384;8.292;2022-07-23T23:49:28;1.20;;;0.90;;
19404;SDS011;9838;49.384;8.292;2022-07-23T23:59:30;2.28;;;1.05;;
